sensor_id;sensor_type;location;lat;lon;timestamp;P1;durP1;ratioP1;P2;durP2;ratioP2
11651;SDS011;5882;48.818;9.114;2023-03-17T00:02:38;3.50;;;2.80;;
11651;SDS011;5882;48.818;9.114;2023-03-17T00:05:29;4.00;;;2.53;;
11651;SDS011;5882;48.818;9.114;2023-03-17T00:08:18;4.28;;;2.90;;
11651;SDS011;5882;48.818;9.114;2023-03-17T00:11:04;4.53;;;2.60;;
11651;SDS011;5882;48.818;9.114;2023-03-17T00:13:52;4.18;;;2.22;;
11651;SDS011;5882;48.818;9.114;2023-03-17T00:16:37;2.75;;;2.50;;
11651;SDS011;5882;48.818;9.114;2023-03-17T00:19:27;3.65;;;2.58;;
11651;SDS011;5882;48.818;9.114;2023-03-17T00:22:14;4.45;;;2.65;;
11651;SDS011;5882;48.818;9.114;2023-03-17T00:25:00;2.58;;;2.38;;
11651;SDS011;5882;48.818;9.114;2023-03-17T00:27:47;3.10;;;2.42;;
11651;SDS011;5882;48.818;9.114;2023-03-17T00:30:33;3.28;;;2.42;;
11651;SDS011;5882;48.818;9.114;2023-03-17T00:33:28;2.45;;;2.17;;
11651;SDS011;5882;48.818;9.114;2023-03-17T00:36:17;2.78;;;2.50;;
11651;SDS011;5882;48.818;9.114;2023-03-17T00:39:04;2.60;;;2.28;;
11651;SDS011;5882;48.818;9.114;2023-03-17T00:41:50;2.45;;;2.25;;
11651;SDS011;5882;48.818;9.114;2023-03-17T00:44:36;2.35;;;2.15;;
11651;SDS011;5882;48.818;9.114;2023-03-17T00:47:21;3.25;;;2.65;;
11651;SDS011;5882;48.818;9.114;2023-03-17T00:50:09;4.47;;;2.38;;
11651;SDS011;5882;48.818;9.114;2023-03-17T00:52:56;3.13;;;2.53;;
11651;SDS011;5882;48.818;9.114;2023-03-17T00:55:42;2.88;;;2.53;;
11651;SDS011;5882;48.818;9.114;2023-03-17T00:58:29;2.83;;;2.50;;
11651;SDS011;5882;48.818;9.114;2023-03-17T01:01:15;3.63;;;2.90;;
11651;SDS011;5882;48.818;9.114;2023-03-17T01:04:02;4.57;;;2.55;;
11651;SDS011;5882;48.818;9.114;2023-03-17T01:06:48;2.83;;;2.47;;
11651;SDS011;5882;48.818;9.114;2023-03-17T01:09:36;3.20;;;2.63;;
11651;SDS011;5882;48.818;9.114;2023-03-17T01:12:22;3.70;;;2.20;;
11651;SDS011;5882;48.818;9.114;2023-03-17T01:15:07;2.95;;;2.70;;
11651;SDS011;5882;48.818;9.114;2023-03-17T01:17:53;2.95;;;2.60;;
11651;SDS011;5882;48.818;9.114;2023-03-17T01:20:40;2.63;;;2.42;;
11651;SDS011;5882;48.818;9.114;2023-03-17T01:23:28;2.70;;;2.40;;
11651;SDS011;5882;48.818;9.114;2023-03-17T01:26:16;4.95;;;2.38;;
11651;SDS011;5882;48.818;9.114;2023-03-17T01:29:01;2.90;;;2.50;;
11651;SDS011;5882;48.818;9.114;2023-03-17T01:31:47;3.60;;;2.85;;
11651;SDS011;5882;48.818;9.114;2023-03-17T01:34:32;4.55;;;2.65;;
11651;SDS011;5882;48.818;9.114;2023-03-17T01:37:18;3.53;;;2.40;;
11651;SDS011;5882;48.818;9.114;2023-03-17T01:40:04;2.90;;;2.20;;
11651;SDS011;5882;48.818;9.114;2023-03-17T01:42:52;2.53;;;2.33;;
11651;SDS011;5882;48.818;9.114;2023-03-17T01:48:46;3.63;;;2.30;;
11651;SDS011;5882;48.818;9.114;2023-03-17T01:51:33;3.00;;;2.53;;
11651;SDS011;5882;48.818;9.114;2023-03-17T01:54:21;3.70;;;2.40;;
11651;SDS011;5882;48.818;9.114;2023-03-17T01:57:09;4.25;;;2.55;;
11651;SDS011;5882;48.818;9.114;2023-03-17T01:59:58;3.05;;;2.40;;
11651;SDS011;5882;48.818;9.114;2023-03-17T02:02:45;4.38;;;2.88;;
11651;SDS011;5882;48.818;9.114;2023-03-17T02:05:31;4.00;;;2.38;;
11651;SDS011;5882;48.818;9.114;2023-03-17T02:08:16;3.05;;;2.30;;
11651;SDS011;5882;48.818;9.114;2023-03-17T02:11:02;2.60;;;2.40;;
11651;SDS011;5882;48.818;9.114;2023-03-17T02:13:48;2.20;;;2.00;;
11651;SDS011;5882;48.818;9.114;2023-03-17T02:16:34;2.47;;;2.28;;
11651;SDS011;5882;48.818;9.114;2023-03-17T02:19:19;3.72;;;2.83;;
11651;SDS011;5882;48.818;9.114;2023-03-17T02:22:06;2.88;;;2.53;;
11651;SDS011;5882;48.818;9.114;2023-03-17T02:24:52;4.07;;;2.70;;
11651;SDS011;5882;48.818;9.114;2023-03-17T02:27:40;3.10;;;2.38;;
11651;SDS011;5882;48.818;9.114;2023-03-17T02:30:26;2.53;;;2.33;;
11651;SDS011;5882;48.818;9.114;2023-03-17T02:33:12;2.40;;;2.20;;
11651;SDS011;5882;48.818;9.114;2023-03-17T02:35:59;3.55;;;2.63;;
11651;SDS011;5882;48.818;9.114;2023-03-17T02:38:46;2.50;;;2.30;;
11651;SDS011;5882;48.818;9.114;2023-03-17T02:41:31;2.70;;;2.45;;
11651;SDS011;5882;48.818;9.114;2023-03-17T02:44:16;2.65;;;2.33;;
11651;SDS011;5882;48.818;9.114;2023-03-17T02:47:02;3.63;;;2.92;;
11651;SDS011;5882;48.818;9.114;2023-03-17T02:49:49;2.75;;;2.47;;
11651;SDS011;5882;48.818;9.114;2023-03-17T02:52:37;2.67;;;2.47;;
11651;SDS011;5882;48.818;9.114;2023-03-17T02:55:24;2.90;;;2.38;;
11651;SDS011;5882;48.818;9.114;2023-03-17T02:58:10;3.80;;;2.90;;
11651;SDS011;5882;48.818;9.114;2023-03-17T03:00:55;2.83;;;2.58;;
11651;SDS011;5882;48.818;9.114;2023-03-17T03:03:40;2.38;;;2.17;;
11651;SDS011;5882;48.818;9.114;2023-03-17T03:06:26;2.42;;;2.20;;
11651;SDS011;5882;48.818;9.114;2023-03-17T03:09:11;2.97;;;2.60;;
11651;SDS011;5882;48.818;9.114;2023-03-17T03:11:59;2.70;;;2.50;;
11651;SDS011;5882;48.818;9.114;2023-03-17T03:14:44;3.45;;;2.40;;
11651;SDS011;5882;48.818;9.114;2023-03-17T03:17:30;5.28;;;3.13;;
11651;SDS011;5882;48.818;9.114;2023-03-17T03:20:15;2.83;;;2.45;;
11651;SDS011;5882;48.818;9.114;2023-03-17T03:23:03;3.72;;;2.40;;
11651;SDS011;5882;48.818;9.114;2023-03-17T03:25:49;2.90;;;2.20;;
11651;SDS011;5882;48.818;9.114;2023-03-17T03:28:36;2.85;;;2.50;;
11651;SDS011;5882;48.818;9.114;2023-03-17T03:31:21;2.60;;;2.35;;
11651;SDS011;5882;48.818;9.114;2023-03-17T03:34:07;3.63;;;2.58;;
11651;SDS011;5882;48.818;9.114;2023-03-17T03:36:52;4.40;;;2.63;;
11651;SDS011;5882;48.818;9.114;2023-03-17T03:39:37;4.13;;;2.40;;
11651;SDS011;5882;48.818;9.114;2023-03-17T03:42:22;2.58;;;2.35;;
11651;SDS011;5882;48.818;9.114;2023-03-17T03:45:10;2.40;;;2.20;;
11651;SDS011;5882;48.818;9.114;2023-03-17T03:47:55;3.25;;;2.60;;
11651;SDS011;5882;48.818;9.114;2023-03-17T03:50:40;3.45;;;2.75;;
11651;SDS011;5882;48.818;9.114;2023-03-17T03:53:28;2.17;;;1.98;;
11651;SDS011;5882;48.818;9.114;2023-03-17T03:56:13;2.90;;;2.20;;
11651;SDS011;5882;48.818;9.114;2023-03-17T03:58:59;5.32;;;2.05;;
11651;SDS011;5882;48.818;9.114;2023-03-17T04:01:45;2.22;;;2.03;;
11651;SDS011;5882;48.818;9.114;2023-03-17T04:04:30;2.47;;;2.10;;
11651;SDS011;5882;48.818;9.114;2023-03-17T04:07:16;2.58;;;2.38;;
11651;SDS011;5882;48.818;9.114;2023-03-17T04:10:01;3.33;;;2.80;;
11651;SDS011;5882;48.818;9.114;2023-03-17T04:12:47;2.80;;;2.60;;
11651;SDS011;5882;48.818;9.114;2023-03-17T04:15:32;2.97;;;2.35;;
11651;SDS011;5882;48.818;9.114;2023-03-17T04:18:19;2.65;;;2.30;;
11651;SDS011;5882;48.818;9.114;2023-03-17T04:21:04;2.58;;;2.33;;
11651;SDS011;5882;48.818;9.114;2023-03-17T04:23:51;3.45;;;2.30;;
11651;SDS011;5882;48.818;9.114;2023-03-17T04:26:36;4.28;;;2.65;;
11651;SDS011;5882;48.818;9.114;2023-03-17T04:29:23;2.75;;;2.35;;
11651;SDS011;5882;48.818;9.114;2023-03-17T04:32:08;2.85;;;2.58;;
11651;SDS011;5882;48.818;9.114;2023-03-17T04:34:57;3.47;;;2.40;;
11651;SDS011;5882;48.818;9.114;2023-03-17T04:37:42;2.20;;;2.00;;
11651;SDS011;5882;48.818;9.114;2023-03-17T04:40:28;2.25;;;2.05;;
11651;SDS011;5882;48.818;9.114;2023-03-17T04:43:13;2.45;;;2.25;;
11651;SDS011;5882;48.818;9.114;2023-03-17T04:45:58;2.25;;;2.05;;
11651;SDS011;5882;48.818;9.114;2023-03-17T04:48:43;2.50;;;2.30;;
11651;SDS011;5882;48.818;9.114;2023-03-17T04:51:30;2.88;;;2.20;;
11651;SDS011;5882;48.818;9.114;2023-03-17T04:54:18;2.50;;;2.20;;
11651;SDS011;5882;48.818;9.114;2023-03-17T04:57:03;2.78;;;2.30;;
11651;SDS011;5882;48.818;9.114;2023-03-17T04:59:48;2.97;;;2.40;;
11651;SDS011;5882;48.818;9.114;2023-03-17T05:02:33;3.30;;;2.53;;
11651;SDS011;5882;48.818;9.114;2023-03-17T05:05:21;2.85;;;2.53;;
11651;SDS011;5882;48.818;9.114;2023-03-17T05:08:08;2.47;;;2.28;;
11651;SDS011;5882;48.818;9.114;2023-03-17T05:10:54;2.50;;;2.30;;
11651;SDS011;5882;48.818;9.114;2023-03-17T05:13:40;3.00;;;2.75;;
11651;SDS011;5882;48.818;9.114;2023-03-17T05:16:30;3.60;;;2.22;;
11651;SDS011;5882;48.818;9.114;2023-03-17T05:19:15;3.67;;;2.42;;
11651;SDS011;5882;48.818;9.114;2023-03-17T05:22:00;2.88;;;2.67;;
11651;SDS011;5882;48.818;9.114;2023-03-17T05:24:47;5.95;;;2.45;;
11651;SDS011;5882;48.818;9.114;2023-03-17T05:27:32;2.50;;;2.30;;
11651;SDS011;5882;48.818;9.114;2023-03-17T05:30:17;2.70;;;2.22;;
11651;SDS011;5882;48.818;9.114;2023-03-17T05:33:05;3.88;;;2.67;;
11651;SDS011;5882;48.818;9.114;2023-03-17T05:35:50;4.05;;;2.33;;
11651;SDS011;5882;48.818;9.114;2023-03-17T05:38:36;2.40;;;2.20;;
11651;SDS011;5882;48.818;9.114;2023-03-17T05:41:22;2.70;;;2.50;;
11651;SDS011;5882;48.818;9.114;2023-03-17T05:44:11;4.07;;;2.90;;
11651;SDS011;5882;48.818;9.114;2023-03-17T05:46:56;2.58;;;2.30;;
11651;SDS011;5882;48.818;9.114;2023-03-17T05:49:42;2.85;;;2.45;;
11651;SDS011;5882;48.818;9.114;2023-03-17T05:52:27;3.53;;;2.58;;
11651;SDS011;5882;48.818;9.114;2023-03-17T05:55:15;2.83;;;2.15;;
11651;SDS011;5882;48.818;9.114;2023-03-17T05:58:01;2.65;;;2.45;;
11651;SDS011;5882;48.818;9.114;2023-03-17T06:00:49;4.43;;;2.53;;
11651;SDS011;5882;48.818;9.114;2023-03-17T06:03:34;3.33;;;2.58;;
11651;SDS011;5882;48.818;9.114;2023-03-17T06:06:21;2.78;;;2.20;;
11651;SDS011;5882;48.818;9.114;2023-03-17T06:09:07;3.33;;;2.80;;
11651;SDS011;5882;48.818;9.114;2023-03-17T06:11:52;3.95;;;2.55;;
11651;SDS011;5882;48.818;9.114;2023-03-17T06:14:39;2.72;;;2.45;;
11651;SDS011;5882;48.818;9.114;2023-03-17T06:17:24;4.95;;;3.13;;
11651;SDS011;5882;48.818;9.114;2023-03-17T06:20:10;3.13;;;2.78;;
11651;SDS011;5882;48.818;9.114;2023-03-17T06:22:58;3.70;;;2.70;;
11651;SDS011;5882;48.818;9.114;2023-03-17T06:25:44;3.45;;;2.70;;
11651;SDS011;5882;48.818;9.114;2023-03-17T06:28:30;3.80;;;2.70;;
11651;SDS011;5882;48.818;9.114;2023-03-17T06:31:17;2.78;;;2.53;;
11651;SDS011;5882;48.818;9.114;2023-03-17T06:34:02;3.35;;;2.80;;
11651;SDS011;5882;48.818;9.114;2023-03-17T06:36:47;3.03;;;2.72;;
11651;SDS011;5882;48.818;9.114;2023-03-17T06:39:32;3.20;;;2.65;;
11651;SDS011;5882;48.818;9.114;2023-03-17T06:42:18;2.95;;;2.53;;
11651;SDS011;5882;48.818;9.114;2023-03-17T06:45:07;3.60;;;2.80;;
11651;SDS011;5882;48.818;9.114;2023-03-17T06:47:54;2.70;;;2.50;;
11651;SDS011;5882;48.818;9.114;2023-03-17T06:50:39;3.13;;;2.80;;
11651;SDS011;5882;48.818;9.114;2023-03-17T06:53:25;3.15;;;2.58;;
11651;SDS011;5882;48.818;9.114;2023-03-17T06:56:10;4.20;;;3.20;;
11651;SDS011;5882;48.818;9.114;2023-03-17T06:58:55;3.10;;;2.80;;
11651;SDS011;5882;48.818;9.114;2023-03-17T07:01:44;3.40;;;2.70;;
11651;SDS011;5882;48.818;9.114;2023-03-17T07:04:41;6.40;;;2.80;;
11651;SDS011;5882;48.818;9.114;2023-03-17T07:07:31;3.72;;;2.47;;
11651;SDS011;5882;48.818;9.114;2023-03-17T07:10:35;2.78;;;2.47;;
11651;SDS011;5882;48.818;9.114;2023-03-17T07:13:21;3.85;;;2.30;;
11651;SDS011;5882;48.818;9.114;2023-03-17T07:16:12;3.35;;;2.58;;
11651;SDS011;5882;48.818;9.114;2023-03-17T07:18:59;4.25;;;2.67;;
11651;SDS011;5882;48.818;9.114;2023-03-17T07:21:46;4.72;;;2.60;;
11651;SDS011;5882;48.818;9.114;2023-03-17T07:24:32;3.13;;;2.55;;
11651;SDS011;5882;48.818;9.114;2023-03-17T07:27:21;3.60;;;2.70;;
11651;SDS011;5882;48.818;9.114;2023-03-17T07:30:08;2.80;;;2.22;;
11651;SDS011;5882;48.818;9.114;2023-03-17T07:32:53;2.97;;;2.22;;
11651;SDS011;5882;48.818;9.114;2023-03-17T07:35:39;2.72;;;2.30;;
11651;SDS011;5882;48.818;9.114;2023-03-17T07:38:25;4.75;;;2.40;;
11651;SDS011;5882;48.818;9.114;2023-03-17T07:41:13;5.43;;;3.38;;
11651;SDS011;5882;48.818;9.114;2023-03-17T07:43:58;3.35;;;2.90;;
11651;SDS011;5882;48.818;9.114;2023-03-17T07:46:48;3.28;;;2.97;;
11651;SDS011;5882;48.818;9.114;2023-03-17T07:49:36;3.70;;;2.90;;
11651;SDS011;5882;48.818;9.114;2023-03-17T07:52:21;6.13;;;3.22;;
11651;SDS011;5882;48.818;9.114;2023-03-17T07:55:09;6.32;;;3.30;;
11651;SDS011;5882;48.818;9.114;2023-03-17T07:57:55;6.97;;;3.65;;
11651;SDS011;5882;48.818;9.114;2023-03-17T08:00:40;3.10;;;2.67;;
11651;SDS011;5882;48.818;9.114;2023-03-17T08:03:25;4.50;;;2.90;;
11651;SDS011;5882;48.818;9.114;2023-03-17T08:06:14;3.50;;;2.75;;
11651;SDS011;5882;48.818;9.114;2023-03-17T08:08:59;4.10;;;3.38;;
11651;SDS011;5882;48.818;9.114;2023-03-17T08:11:48;3.28;;;2.90;;
11651;SDS011;5882;48.818;9.114;2023-03-17T08:14:34;3.05;;;2.85;;
11651;SDS011;5882;48.818;9.114;2023-03-17T08:17:19;4.72;;;2.72;;
11651;SDS011;5882;48.818;9.114;2023-03-17T08:20:10;3.35;;;3.03;;
11651;SDS011;5882;48.818;9.114;2023-03-17T08:22:55;3.38;;;2.92;;
11651;SDS011;5882;48.818;9.114;2023-03-17T08:25:41;4.35;;;2.97;;
11651;SDS011;5882;48.818;9.114;2023-03-17T08:28:28;2.85;;;2.30;;
11651;SDS011;5882;48.818;9.114;2023-03-17T08:31:17;5.80;;;2.92;;
11651;SDS011;5882;48.818;9.114;2023-03-17T08:34:02;3.38;;;2.80;;
11651;SDS011;5882;48.818;9.114;2023-03-17T08:36:51;3.95;;;2.95;;
11651;SDS011;5882;48.818;9.114;2023-03-17T08:39:50;3.88;;;2.58;;
11651;SDS011;5882;48.818;9.114;2023-03-17T08:42:39;2.72;;;2.53;;
11651;SDS011;5882;48.818;9.114;2023-03-17T08:45:25;2.60;;;2.20;;
11651;SDS011;5882;48.818;9.114;2023-03-17T08:48:11;4.15;;;2.60;;
11651;SDS011;5882;48.818;9.114;2023-03-17T08:50:57;4.82;;;2.78;;
11651;SDS011;5882;48.818;9.114;2023-03-17T08:53:42;2.75;;;2.47;;
11651;SDS011;5882;48.818;9.114;2023-03-17T08:56:29;4.00;;;2.40;;
11651;SDS011;5882;48.818;9.114;2023-03-17T08:59:14;3.08;;;2.35;;
11651;SDS011;5882;48.818;9.114;2023-03-17T09:02:04;5.53;;;2.97;;
11651;SDS011;5882;48.818;9.114;2023-03-17T09:04:52;2.60;;;2.40;;
11651;SDS011;5882;48.818;9.114;2023-03-17T09:07:38;2.85;;;1.98;;
11651;SDS011;5882;48.818;9.114;2023-03-17T09:10:24;2.13;;;1.92;;
11651;SDS011;5882;48.818;9.114;2023-03-17T09:13:11;2.33;;;2.05;;
11651;SDS011;5882;48.818;9.114;2023-03-17T09:15:57;2.67;;;2.33;;
11651;SDS011;5882;48.818;9.114;2023-03-17T09:18:45;3.47;;;2.20;;
11651;SDS011;5882;48.818;9.114;2023-03-17T09:21:34;2.85;;;2.28;;
11651;SDS011;5882;48.818;9.114;2023-03-17T09:24:20;2.30;;;2.10;;
11651;SDS011;5882;48.818;9.114;2023-03-17T09:27:05;2.30;;;2.10;;
11651;SDS011;5882;48.818;9.114;2023-03-17T09:29:52;2.72;;;1.95;;
11651;SDS011;5882;48.818;9.114;2023-03-17T09:32:38;2.80;;;2.42;;
11651;SDS011;5882;48.818;9.114;2023-03-17T09:35:25;3.17;;;2.60;;
11651;SDS011;5882;48.818;9.114;2023-03-17T09:38:10;2.88;;;2.38;;
11651;SDS011;5882;48.818;9.114;2023-03-17T09:40:56;3.97;;;2.40;;
11651;SDS011;5882;48.818;9.114;2023-03-17T09:43:43;2.97;;;2.47;;
11651;SDS011;5882;48.818;9.114;2023-03-17T09:46:36;3.05;;;2.40;;
11651;SDS011;5882;48.818;9.114;2023-03-17T09:49:27;2.60;;;2.40;;
11651;SDS011;5882;48.818;9.114;2023-03-17T09:52:16;2.88;;;2.30;;
11651;SDS011;5882;48.818;9.114;2023-03-17T09:55:02;2.78;;;2.40;;
11651;SDS011;5882;48.818;9.114;2023-03-17T09:57:49;2.55;;;2.35;;
11651;SDS011;5882;48.818;9.114;2023-03-17T10:00:36;2.80;;;2.40;;
11651;SDS011;5882;48.818;9.114;2023-03-17T10:03:22;2.60;;;2.28;;
11651;SDS011;5882;48.818;9.114;2023-03-17T10:06:13;2.80;;;2.50;;
11651;SDS011;5882;48.818;9.114;2023-03-17T10:09:03;2.30;;;2.00;;
11651;SDS011;5882;48.818;9.114;2023-03-17T10:11:56;2.75;;;2.30;;
11651;SDS011;5882;48.818;9.114;2023-03-17T10:14:49;2.30;;;2.10;;
11651;SDS011;5882;48.818;9.114;2023-03-17T10:17:35;5.47;;;2.40;;
11651;SDS011;5882;48.818;9.114;2023-03-17T10:20:24;2.38;;;2.13;;
11651;SDS011;5882;48.818;9.114;2023-03-17T10:23:10;2.35;;;2.15;;
11651;SDS011;5882;48.818;9.114;2023-03-17T10:25:59;2.63;;;2.42;;
11651;SDS011;5882;48.818;9.114;2023-03-17T10:28:46;2.72;;;2.10;;
11651;SDS011;5882;48.818;9.114;2023-03-17T10:31:32;2.65;;;2.30;;
11651;SDS011;5882;48.818;9.114;2023-03-17T10:34:22;3.88;;;2.20;;
11651;SDS011;5882;48.818;9.114;2023-03-17T10:37:11;2.30;;;2.10;;
11651;SDS011;5882;48.818;9.114;2023-03-17T10:39:56;2.25;;;2.00;;
11651;SDS011;5882;48.818;9.114;2023-03-17T10:42:48;2.92;;;2.03;;
11651;SDS011;5882;48.818;9.114;2023-03-17T10:45:36;2.97;;;2.47;;
11651;SDS011;5882;48.818;9.114;2023-03-17T10:48:23;2.38;;;1.92;;
11651;SDS011;5882;48.818;9.114;2023-03-17T10:51:12;1.73;;;1.63;;
11651;SDS011;5882;48.818;9.114;2023-03-17T10:54:06;2.10;;;1.90;;
11651;SDS011;5882;48.818;9.114;2023-03-17T10:56:54;2.00;;;1.80;;
11651;SDS011;5882;48.818;9.114;2023-03-17T10:59:47;2.20;;;1.92;;
11651;SDS011;5882;48.818;9.114;2023-03-17T11:02:36;2.40;;;1.80;;
11651;SDS011;5882;48.818;9.114;2023-03-17T11:05:27;2.22;;;1.83;;
11651;SDS011;5882;48.818;9.114;2023-03-17T11:08:14;1.50;;;1.40;;
11651;SDS011;5882;48.818;9.114;2023-03-17T11:11:03;2.00;;;1.75;;
11651;SDS011;5882;48.818;9.114;2023-03-17T11:13:49;3.33;;;1.77;;
11651;SDS011;5882;48.818;9.114;2023-03-17T11:16:37;1.70;;;1.50;;
11651;SDS011;5882;48.818;9.114;2023-03-17T11:19:26;2.13;;;1.58;;
11651;SDS011;5882;48.818;9.114;2023-03-17T11:22:18;2.15;;;1.77;;
11651;SDS011;5882;48.818;9.114;2023-03-17T11:25:07;1.60;;;1.50;;
11651;SDS011;5882;48.818;9.114;2023-03-17T11:27:55;1.52;;;1.42;;
11651;SDS011;5882;48.818;9.114;2023-03-17T11:31:01;1.52;;;1.42;;
11651;SDS011;5882;48.818;9.114;2023-03-17T11:34:04;2.15;;;1.63;;
11651;SDS011;5882;48.818;9.114;2023-03-17T11:36:54;1.80;;;1.70;;
11651;SDS011;5882;48.818;9.114;2023-03-17T11:39:43;1.98;;;1.50;;
11651;SDS011;5882;48.818;9.114;2023-03-17T11:42:35;1.50;;;1.40;;
11651;SDS011;5882;48.818;9.114;2023-03-17T11:45:24;1.90;;;1.35;;
11651;SDS011;5882;48.818;9.114;2023-03-17T11:51:24;1.73;;;1.40;;
11651;SDS011;5882;48.818;9.114;2023-03-17T11:54:13;2.28;;;1.65;;
11651;SDS011;5882;48.818;9.114;2023-03-17T11:57:07;1.83;;;1.42;;
11651;SDS011;5882;48.818;9.114;2023-03-17T11:59:54;2.15;;;1.70;;
11651;SDS011;5882;48.818;9.114;2023-03-17T12:02:43;1.70;;;1.40;;
11651;SDS011;5882;48.818;9.114;2023-03-17T12:05:31;1.45;;;1.33;;
11651;SDS011;5882;48.818;9.114;2023-03-17T12:08:23;2.22;;;1.60;;
11651;SDS011;5882;48.818;9.114;2023-03-17T12:11:15;1.60;;;1.50;;
11651;SDS011;5882;48.818;9.114;2023-03-17T12:14:06;1.65;;;1.50;;
11651;SDS011;5882;48.818;9.114;2023-03-17T12:16:53;1.55;;;1.45;;
11651;SDS011;5882;48.818;9.114;2023-03-17T12:19:43;1.83;;;1.48;;
11651;SDS011;5882;48.818;9.114;2023-03-17T12:22:30;2.08;;;1.40;;
11651;SDS011;5882;48.818;9.114;2023-03-17T12:25:22;2.63;;;1.80;;
11651;SDS011;5882;48.818;9.114;2023-03-17T12:28:10;1.70;;;1.60;;
11651;SDS011;5882;48.818;9.114;2023-03-17T12:31:02;1.65;;;1.30;;
11651;SDS011;5882;48.818;9.114;2023-03-17T12:33:51;1.60;;;1.50;;
11651;SDS011;5882;48.818;9.114;2023-03-17T12:36:43;1.45;;;1.35;;
11651;SDS011;5882;48.818;9.114;2023-03-17T12:39:29;1.40;;;1.13;;
11651;SDS011;5882;48.818;9.114;2023-03-17T12:42:20;1.60;;;1.42;;
11651;SDS011;5882;48.818;9.114;2023-03-17T12:48:30;1.83;;;1.40;;
11651;SDS011;5882;48.818;9.114;2023-03-17T12:54:23;1.55;;;1.38;;
11651;SDS011;5882;48.818;9.114;2023-03-17T12:57:12;1.80;;;1.30;;
11651;SDS011;5882;48.818;9.114;2023-03-17T13:00:04;1.63;;;1.38;;
11651;SDS011;5882;48.818;9.114;2023-03-17T13:03:05;1.52;;;1.30;;
11651;SDS011;5882;48.818;9.114;2023-03-17T13:05:53;2.58;;;1.63;;
11651;SDS011;5882;48.818;9.114;2023-03-17T13:08:39;1.83;;;1.42;;
11651;SDS011;5882;48.818;9.114;2023-03-17T13:11:26;0.98;;;0.95;;
11651;SDS011;5882;48.818;9.114;2023-03-17T13:14:22;2.00;;;1.50;;
11651;SDS011;5882;48.818;9.114;2023-03-17T13:20:15;1.90;;;1.40;;
11651;SDS011;5882;48.818;9.114;2023-03-17T13:23:02;0.90;;;0.90;;
11651;SDS011;5882;48.818;9.114;2023-03-17T13:25:48;1.20;;;1.10;;
11651;SDS011;5882;48.818;9.114;2023-03-17T13:28:39;2.00;;;1.10;;
11651;SDS011;5882;48.818;9.114;2023-03-17T13:31:33;2.15;;;1.50;;
11651;SDS011;5882;48.818;9.114;2023-03-17T13:34:22;1.20;;;1.10;;
11651;SDS011;5882;48.818;9.114;2023-03-17T13:37:12;2.17;;;1.30;;
11651;SDS011;5882;48.818;9.114;2023-03-17T13:40:07;1.40;;;1.17;;
11651;SDS011;5882;48.818;9.114;2023-03-17T13:43:01;1.30;;;1.20;;
11651;SDS011;5882;48.818;9.114;2023-03-17T13:45:52;1.35;;;1.25;;
11651;SDS011;5882;48.818;9.114;2023-03-17T13:48:39;1.33;;;1.23;;
11651;SDS011;5882;48.818;9.114;2023-03-17T13:51:26;1.20;;;1.10;;
11651;SDS011;5882;48.818;9.114;2023-03-17T13:54:20;1.50;;;1.40;;
11651;SDS011;5882;48.818;9.114;2023-03-17T13:57:22;1.10;;;1.00;;
11651;SDS011;5882;48.818;9.114;2023-03-17T14:00:15;1.20;;;1.10;;
11651;SDS011;5882;48.818;9.114;2023-03-17T14:03:04;0.90;;;0.90;;
11651;SDS011;5882;48.818;9.114;2023-03-17T14:05:50;1.05;;;1.05;;
11651;SDS011;5882;48.818;9.114;2023-03-17T14:08:37;1.17;;;1.05;;
11651;SDS011;5882;48.818;9.114;2023-03-17T14:11:28;1.02;;;1.00;;
11651;SDS011;5882;48.818;9.114;2023-03-17T14:14:18;1.30;;;1.20;;
11651;SDS011;5882;48.818;9.114;2023-03-17T14:17:08;1.15;;;1.13;;
11651;SDS011;5882;48.818;9.114;2023-03-17T14:19:58;1.88;;;1.08;;
11651;SDS011;5882;48.818;9.114;2023-03-17T14:22:44;1.10;;;1.00;;
11651;SDS011;5882;48.818;9.114;2023-03-17T14:25:31;1.23;;;1.13;;
11651;SDS011;5882;48.818;9.114;2023-03-17T14:28:21;1.08;;;1.08;;
11651;SDS011;5882;48.818;9.114;2023-03-17T14:31:15;0.80;;;0.80;;
11651;SDS011;5882;48.818;9.114;2023-03-17T14:34:03;1.70;;;1.20;;
11651;SDS011;5882;48.818;9.114;2023-03-17T14:36:58;1.27;;;1.17;;
11651;SDS011;5882;48.818;9.114;2023-03-17T14:39:47;0.90;;;0.90;;
11651;SDS011;5882;48.818;9.114;2023-03-17T14:42:34;1.20;;;1.10;;
11651;SDS011;5882;48.818;9.114;2023-03-17T14:45:28;1.00;;;1.00;;
11651;SDS011;5882;48.818;9.114;2023-03-17T14:48:21;1.00;;;1.00;;
11651;SDS011;5882;48.818;9.114;2023-03-17T14:51:07;1.15;;;1.10;;
11651;SDS011;5882;48.818;9.114;2023-03-17T14:53:58;1.02;;;1.02;;
11651;SDS011;5882;48.818;9.114;2023-03-17T14:56:47;1.33;;;1.17;;
11651;SDS011;5882;48.818;9.114;2023-03-17T14:59:35;1.60;;;1.25;;
11651;SDS011;5882;48.818;9.114;2023-03-17T15:02:22;1.33;;;0.98;;
11651;SDS011;5882;48.818;9.114;2023-03-17T15:05:13;1.77;;;1.10;;
11651;SDS011;5882;48.818;9.114;2023-03-17T15:11:13;0.95;;;0.95;;
11651;SDS011;5882;48.818;9.114;2023-03-17T15:14:03;1.35;;;1.20;;
11651;SDS011;5882;48.818;9.114;2023-03-17T15:16:50;0.93;;;0.90;;
11651;SDS011;5882;48.818;9.114;2023-03-17T15:19:39;1.15;;;1.02;;
11651;SDS011;5882;48.818;9.114;2023-03-17T15:22:28;1.10;;;1.00;;
11651;SDS011;5882;48.818;9.114;2023-03-17T15:25:17;1.10;;;1.00;;
11651;SDS011;5882;48.818;9.114;2023-03-17T15:28:08;1.20;;;1.10;;
11651;SDS011;5882;48.818;9.114;2023-03-17T15:30:55;1.35;;;1.25;;
11651;SDS011;5882;48.818;9.114;2023-03-17T15:33:43;1.30;;;1.20;;
11651;SDS011;5882;48.818;9.114;2023-03-17T15:36:30;1.13;;;1.13;;
11651;SDS011;5882;48.818;9.114;2023-03-17T15:39:15;1.00;;;1.00;;
11651;SDS011;5882;48.818;9.114;2023-03-17T15:42:01;0.95;;;0.93;;
11651;SDS011;5882;48.818;9.114;2023-03-17T15:44:46;1.50;;;1.15;;
11651;SDS011;5882;48.818;9.114;2023-03-17T15:47:32;2.33;;;1.30;;
11651;SDS011;5882;48.818;9.114;2023-03-17T15:50:20;1.30;;;1.20;;
11651;SDS011;5882;48.818;9.114;2023-03-17T15:53:09;1.20;;;1.10;;
11651;SDS011;5882;48.818;9.114;2023-03-17T15:55:56;1.15;;;1.08;;
11651;SDS011;5882;48.818;9.114;2023-03-17T15:58:42;1.77;;;1.40;;
11651;SDS011;5882;48.818;9.114;2023-03-17T16:01:27;1.73;;;1.30;;
11651;SDS011;5882;48.818;9.114;2023-03-17T16:04:13;1.33;;;1.23;;
11651;SDS011;5882;48.818;9.114;2023-03-17T16:06:58;1.60;;;1.50;;
11651;SDS011;5882;48.818;9.114;2023-03-17T16:09:45;2.17;;;1.80;;
11651;SDS011;5882;48.818;9.114;2023-03-17T16:12:30;1.60;;;1.40;;
11651;SDS011;5882;48.818;9.114;2023-03-17T16:15:15;1.70;;;1.60;;
11651;SDS011;5882;48.818;9.114;2023-03-17T16:18:02;1.75;;;1.65;;
11651;SDS011;5882;48.818;9.114;2023-03-17T16:20:48;2.25;;;1.85;;
11651;SDS011;5882;48.818;9.114;2023-03-17T16:23:34;2.92;;;1.55;;
11651;SDS011;5882;48.818;9.114;2023-03-17T16:26:24;2.10;;;1.60;;
11651;SDS011;5882;48.818;9.114;2023-03-17T16:29:10;2.65;;;1.88;;
11651;SDS011;5882;48.818;9.114;2023-03-17T16:31:56;2.20;;;1.70;;
11651;SDS011;5882;48.818;9.114;2023-03-17T16:34:42;1.70;;;1.60;;
11651;SDS011;5882;48.818;9.114;2023-03-17T16:37:27;1.65;;;1.40;;
11651;SDS011;5882;48.818;9.114;2023-03-17T16:40:18;1.55;;;1.45;;
11651;SDS011;5882;48.818;9.114;2023-03-17T16:43:10;1.33;;;1.20;;
11651;SDS011;5882;48.818;9.114;2023-03-17T16:46:00;1.52;;;1.40;;
11651;SDS011;5882;48.818;9.114;2023-03-17T16:48:46;1.83;;;1.45;;
11651;SDS011;5882;48.818;9.114;2023-03-17T16:51:32;1.40;;;1.30;;
11651;SDS011;5882;48.818;9.114;2023-03-17T16:54:17;1.50;;;1.25;;
11651;SDS011;5882;48.818;9.114;2023-03-17T16:57:03;3.78;;;1.67;;
11651;SDS011;5882;48.818;9.114;2023-03-17T16:59:49;1.80;;;1.70;;
11651;SDS011;5882;48.818;9.114;2023-03-17T17:02:35;1.75;;;1.65;;
11651;SDS011;5882;48.818;9.114;2023-03-17T17:05:21;3.65;;;1.65;;
11651;SDS011;5882;48.818;9.114;2023-03-17T17:08:07;1.80;;;1.52;;
11651;SDS011;5882;48.818;9.114;2023-03-17T17:10:53;2.03;;;1.70;;
11651;SDS011;5882;48.818;9.114;2023-03-17T17:13:40;2.50;;;1.80;;
11651;SDS011;5882;48.818;9.114;2023-03-17T17:16:29;1.92;;;1.73;;
11651;SDS011;5882;48.818;9.114;2023-03-17T17:19:17;2.17;;;2.05;;
11651;SDS011;5882;48.818;9.114;2023-03-17T17:22:03;2.38;;;1.90;;
11651;SDS011;5882;48.818;9.114;2023-03-17T17:24:48;1.83;;;1.60;;